Avord (BA 702) Air Base

LFOA · Cher, Centre, 法国

METAR的历史 LFOA · Avord (BA 702) Air Base

下面你可以看到过去几天的METARs。 选择年份以浏览从2007年开始的旧METAR。

2024年7月16日

时间 代码 天气 温度 能见度 天花板 METAR/SPECI
18:30
V
23 °C 10 km+ - 260° 260° 12 kt METAR LFOA 161630Z AUTO 26012KT CAVOK 23/14 Q1018 NOSIG
18:00
V
24 °C 10 km+ - 260° 260° 12 kt METAR LFOA 161600Z AUTO 26012KT CAVOK 24/13 Q1018 TEMPO 26015G25KT
17:30
V
24 °C 10 km+ - 250° 250° 12 kt METAR LFOA 161530Z AUTO 25012KT CAVOK 24/13 Q1018 TEMPO 26015G25KT
17:00
V
24 °C 10 km+ 8.600 ft 250° 250° 13 kt METAR LFOA 161500Z AUTO 25013KT 230V290 9999 FEW047 SCT076 BKN086 24/14 Q1018 TEMPO 26015G25KT
16:30
V
23 °C 10 km+ 8.200 ft 270° 270° 12 kt METAR LFOA 161430Z AUTO 27012KT 9999 FEW046 BKN082 23/14 Q1018 TEMPO 26015G25KT
16:00
V
23 °C 10 km+ 8.600 ft 260° 260° 15 kt METAR LFOA 161400Z AUTO 26015KT 230V290 9999 FEW045 SCT074 BKN086 23/13 Q1018
15:30
V
22 °C 10 km+ 8.200 ft 250° 250° 14 kt METAR LFOA 161330Z AUTO 25014KT 9999 FEW044 SCT072 BKN082 22/14 Q1018
15:00
V
23 °C 10 km+ 8.400 ft 260° 260° 14 kt METAR LFOA 161300Z AUTO 26014KT 210V280 9999 FEW039 SCT074 BKN084 23/14 Q1018
14:30
V
21 °C 10 km+ 5.800 ft 260° 260° 11 kt METAR LFOA 161230Z AUTO 26011KT 9999 FEW040 BKN058 OVC080 21/15 Q1018
14:00
V
22 °C 10 km+ 7.400 ft 260° 260° 13 kt METAR LFOA 161200Z AUTO 26013KT 220V290 9999 FEW044 BKN074 22/13 Q1018
13:30
V
21 °C 10 km+ 5.600 ft 250° 250° 14 kt METAR LFOA 161130Z AUTO 25014KT 9999 FEW035 SCT048 BKN056 21/13 Q1018
13:00
V
22 °C 10 km+ 3.700 ft 250° 250° 12 kt METAR LFOA 161100Z AUTO 25012KT 9999 SCT031 BKN037 BKN046 22/14 Q1017
12:30
V
21 °C 10 km+ 7.200 ft 240° 240° 11 kt METAR LFOA 161030Z AUTO 24011KT 9999 FEW029 SCT034 BKN072 21/15 Q1018
12:00
V
20 °C 9 km 7.400 ft 250° 250° 11 kt METAR LFOA 161000Z AUTO 25011KT 9000 FEW023 SCT064 BKN074 20/15 Q1017 TEMPO 4000 SHRA BKN015TCU
11:30
V
19 °C 9 km 7.400 ft 250° 250° 9 kt METAR LFOA 160930Z AUTO 25009KT 9000 FEW023/// SCT044/// OVC074/// ///TCU 19/16 Q1017 TEMPO 4000 SHRA
11:00
V
19 °C 10 km+ 6.800 ft 250° 250° 12 kt METAR LFOA 160900Z AUTO 25012KT 9999 FEW023 SCT054 BKN068 19/15 Q1017 TEMPO 4000 SHRA BKN015TCU
10:30
M
19 °C 10 km+ 2.700 ft 270° 270° 14 kt METAR LFOA 160830Z AUTO 27014KT 9999 SCT020 BKN027 BKN046 19/15 Q1017 TEMPO 4000 SHRA BKN015TCU
10:00
V
19 °C 10 km+ - 260° 260° 12 kt METAR LFOA 160800Z AUTO 26012KT 9999 FEW026/// SCT076/// ///TCU 19/16 Q1017 TEMPO 4000 SHRA
09:30
V
18 °C 10 km+ 6.600 ft 250° 250° 7 kt METAR LFOA 160730Z AUTO 25007KT 9999 FEW043 BKN066 18/16 Q1017 TEMPO 4000 SHRA BKN015TCU
09:00
V
16 °C 9 km 3.900 ft 240° 240° 8 kt METAR LFOA 160700Z AUTO 24008KT 9000 RA FEW022/// BKN039/// OVC054/// ///TCU 16/15 Q1017 TEMPO 4000 SHRA
08:30
V
16 °C 9 km 4.300 ft 250° 250° 8 kt METAR LFOA 160630Z AUTO 25008KT 9000 -RA FEW010/// SCT019/// BKN043/// ///TCU 16/15 Q1017 TEMPO 4000 SHRA
08:00
M
17 °C 10 km+ 2.000 ft 220° 220° 10 kt METAR LFOA 160600Z AUTO 22010KT 180V240 9999 BKN020/// BKN025/// BKN033/// ///TCU 17/14 Q1016 TEMPO 4000 SHRA
07:30
V
17 °C 10 km+ 4.100 ft 220° 220° 8 kt METAR LFOA 160530Z AUTO 22008KT 9999 FEW017/// BKN041/// OVC050/// ///TCU 17/14 Q1016 TEMPO 4000 SHRA
07:00
V
17 °C 10 km+ 5.400 ft 230° 230° 10 kt METAR LFOA 160500Z AUTO 23010KT 200V260 9999 FEW024/// OVC054/// ///TCU 17/14 Q1016 TEMPO 4000 SHRA
06:30
V
17 °C 10 km+ 4.800 ft 220° 220° 9 kt METAR LFOA 160430Z AUTO 22009KT 9999 FEW029 OVC048 17/14 Q1016
06:00
V
16 °C 10 km+ 5.200 ft 220° 220° 8 kt METAR LFOA 160400Z AUTO 22008KT 9999 FEW033 BKN052 16/14 Q1015
05:30
V
17 °C 10 km+ 5.600 ft 240° 240° 9 kt METAR LFOA 160330Z AUTO 24009KT 9999 FEW031 BKN056 17/14 Q1015
05:00
V
16 °C 10 km+ - 240° 240° 7 kt METAR LFOA 160300Z AUTO 24007KT CAVOK 16/14 Q1015
04:30
V
16 °C 10 km+ - 240° 240° 8 kt METAR LFOA 160230Z AUTO 24008KT 9999 FEW049 16/13 Q1015
04:00
V
16 °C 10 km+ - 230° 230° 10 kt METAR LFOA 160200Z AUTO 23010KT CAVOK 16/13 Q1015
03:30
V
16 °C 10 km+ - 240° 240° 10 kt METAR LFOA 160130Z AUTO 24010KT CAVOK 16/14 Q1015
03:00
V
16 °C 10 km+ - 240° 240° 7 kt METAR LFOA 160100Z AUTO 24007KT CAVOK 16/13 Q1015
02:30
V
16 °C 10 km+ - 200° 200° 5 kt METAR LFOA 160030Z AUTO 20005KT CAVOK 16/13 Q1015
02:00
V
16 °C 10 km+ - 230° 230° 4 kt METAR LFOA 160000Z AUTO 23004KT CAVOK 16/13 Q1015
01:30
V
17 °C 10 km+ - 220° 220° 4 kt METAR LFOA 152330Z AUTO 22004KT CAVOK 17/13 Q1015
01:00
V
17 °C 10 km+ - 250° 250° 6 kt METAR LFOA 152300Z AUTO 25006KT CAVOK 17/12 Q1015
00:30
V
18 °C 10 km+ - 250° 250° 8 kt METAR LFOA 152230Z AUTO 25008KT CAVOK 18/13 Q1015
00:00
V
18 °C 10 km+ - 250° 250° 9 kt METAR LFOA 152200Z AUTO 25009KT CAVOK 18/13 Q1014

2024年7月15日

时间 代码 天气 温度 能见度 天花板 METAR/SPECI
23:30
V
18 °C 10 km+ - 250° 250° 8 kt METAR LFOA 152130Z AUTO 25008KT CAVOK 18/13 Q1014
23:00
V
19 °C 10 km+ - 260° 260° 8 kt METAR LFOA 152100Z AUTO 26008KT CAVOK 19/13 Q1014
22:30
V
21 °C 10 km+ - 250° 250° 12 kt METAR LFOA 152030Z AUTO 25012KT CAVOK 21/13 Q1013
22:00
V
22 °C 10 km+ - 240° 240° 10 kt METAR LFOA 152000Z AUTO 24010KT CAVOK 22/13 Q1013
21:30
V
23 °C 10 km+ - 240° 240° 11 kt METAR LFOA 151930Z AUTO 24011KT CAVOK 23/14 Q1012
21:00
V
24 °C 10 km+ - 250° 250° 16 kt METAR LFOA 151900Z AUTO 25016KT CAVOK 24/12 Q1012
20:30
V
24 °C 10 km+ - 260° 260° 13 kt METAR LFOA 151830Z AUTO 26013KT CAVOK 24/13 Q1012
20:00
V
25 °C 10 km+ - 260° 260° 18 kt METAR LFOA 151800Z AUTO 26018KT CAVOK 25/14 Q1011 TEMPO 26015G30KT 3000 TSRA BKN060CB
19:30
V
25 °C 10 km+ - 250° 250° 16 kt METAR LFOA 151730Z AUTO 25016KT CAVOK 25/16 Q1010 NOSIG
19:00
V
26 °C 10 km+ 6.400 ft 260° 260° 17 kt METAR LFOA 151700Z AUTO 26017KT 9999 FEW046 BKN064 BKN074 26/17 Q1010 NOSIG
18:30
V
27 °C 10 km+ 4.300 ft 250° 250° 16 kt METAR LFOA 151630Z AUTO 25016KT 9999 BKN043 BKN056 BKN070 27/18 Q1009 NOSIG
18:00
V
26 °C 10 km+ 5.200 ft 250° 250° 17 kt METAR LFOA 151600Z AUTO 25017KT 9999 SCT043 BKN052 OVC070 26/18 Q1009 TEMPO 28020G45KT 2000 TSRAGR BKN010 BKN050CB
17:30
V
26 °C 10 km+ 4.500 ft 250° 250° 14 kt METAR LFOA 151530Z AUTO 25014KT 9999 BKN045 26/18 Q1009 TEMPO 28020G45KT 2000 TSRAGR BKN010 BKN050CB
17:00
V
27 °C 9 km - 240° 240° 12 kt METAR LFOA 151500Z AUTO 24012KT 200V260 9000 FEW041 27/18 Q1009 TEMPO 28020G45KT 2000 TSRAGR BKN010 BKN050CB
16:30
V
27 °C 8 km - 250° 250° 13 kt METAR LFOA 151430Z AUTO 25013KT 8000 NSC 27/18 Q1009 TEMPO 28020G45KT 2000 TSRAGR BKN010 BKN050CB
16:00
V
25 °C 8 km - 250° 250° 15 kt METAR LFOA 151400Z AUTO 25015KT 8000 NSC 25/19 Q1009 TEMPO 28020G45KT 2000 TSRAGR BKN010 BKN050CB
15:30
M
24 °C 7 km 7.800 ft 250° 250° 16 kt METAR LFOA 151330Z AUTO 25016KT 7000 -RA FEW035/// SCT058/// BKN078/// ///CB 24/19 Q1009 TEMPO 28020G45KT 2000 TSRAGR BKN010 BKN050CB
15:00
V
27 °C 10 km+ 4.500 ft 240° 240° 10 kt METAR LFOA 151300Z AUTO 24010KT 9999 BKN045/// BKN054/// BKN070/// ///CB 27/19 Q1009 TEMPO 28020G45KT 2000 TSRAGR BKN010 BKN050CB
14:30
V
28 °C 10 km+ - 200° 200° 6 kt METAR LFOA 151230Z AUTO 20006KT 170V250 CAVOK 28/19 Q1008 TEMPO 28020G45KT 2000 TSRAGR BKN010 BKN050CB
14:00
V
27 °C 10 km+ - 160° 160° 6 kt METAR LFOA 151200Z AUTO 16006KT 130V200 9999 ///CB 27/19 Q1008 TEMPO 28020G45KT 2000 TSRAGR BKN010 BKN050CB
13:30
V
26 °C 10 km+ - 160° 160° 5 kt METAR LFOA 151130Z AUTO 16005KT 9999 TS ///CB 26/19 Q1008 TEMPO 28020G45KT 2000 TSRAGR BKN010 BKN050CB
13:00
V
26 °C 10 km+ - 130° 130° 6 kt METAR LFOA 151100Z AUTO 13006KT 100V160 9999 ///CB 26/18 Q1008 TEMPO 28020G45KT 2000 TSRAGR BKN010 BKN050CB
12:30
V
26 °C 10 km+ - 130° 130° 8 kt METAR LFOA 151030Z AUTO 13008KT 100V160 9999 ///CB 26/18 Q1008 TEMPO 28020G45KT 2000 TSRAGR BKN010 BKN050CB
12:00
V
25 °C 10 km+ - 140° 140° 7 kt METAR LFOA 151000Z AUTO 14007KT CAVOK 25/18 Q1008 TEMPO 28020G45KT 2000 TSRAGR BKN010 BKN050CB
11:30
V
25 °C 10 km+ - 140° 140° 7 kt METAR LFOA 150930Z AUTO 14007KT CAVOK 25/18 Q1008 TEMPO 28020G45KT 2000 TSRAGR BKN010 BKN050CB
11:00
V
24 °C 10 km+ - 130° 130° 8 kt METAR LFOA 150900Z AUTO 13008KT 100V160 CAVOK 24/17 Q1009 NOSIG
10:30
V
24 °C 10 km+ - 120° 120° 8 kt METAR LFOA 150830Z AUTO 12008KT CAVOK 24/17 Q1009 NOSIG
10:00
V
22 °C 10 km+ - 120° 120° 9 kt METAR LFOA 150800Z AUTO 12009KT CAVOK 22/16 Q1009 NOSIG
09:30
V
21 °C 10 km+ - 120° 120° 10 kt METAR LFOA 150730Z AUTO 12010KT CAVOK 21/16 Q1010 NOSIG
09:00
V
20 °C 10 km+ - 090° 090° 7 kt METAR LFOA 150700Z AUTO 09007KT CAVOK 20/16 Q1010 NOSIG
08:30
V
18 °C 10 km+ - 090° 090° 5 kt METAR LFOA 150630Z AUTO 09005KT CAVOK 18/15 Q1010 NOSIG
08:00
V
16 °C 10 km+ - 090° 090° 5 kt METAR LFOA 150600Z AUTO 09005KT CAVOK 16/15 Q1010 NOSIG
07:30
V
16 °C 10 km+ - 080° 080° 6 kt METAR LFOA 150530Z AUTO 08006KT CAVOK 16/14 Q1010 NOSIG
07:00
V
15 °C 10 km+ - 080° 080° 8 kt METAR LFOA 150500Z AUTO 08008KT CAVOK 15/14 Q1010 NOSIG
06:30
V
14 °C 10 km+ - 090° 090° 6 kt METAR LFOA 150430Z AUTO 09006KT CAVOK 14/13 Q1011 NOSIG
06:00
V
14 °C 10 km+ - 080° 080° 6 kt METAR LFOA 150400Z AUTO 08006KT CAVOK 14/13 Q1011
05:30
V
14 °C 10 km+ - 080° 080° 6 kt METAR LFOA 150330Z AUTO 08006KT CAVOK 14/13 Q1011
05:00
V
15 °C 10 km+ - 070° 070° 5 kt METAR LFOA 150300Z AUTO 07005KT CAVOK 15/13 Q1011
04:30
V
15 °C 10 km+ - 090° 090° 7 kt METAR LFOA 150230Z AUTO 09007KT CAVOK 15/14 Q1011
04:00
V
15 °C 10 km+ - 080° 080° 6 kt METAR LFOA 150200Z AUTO 08006KT CAVOK 15/14 Q1012
03:30
V
15 °C 10 km+ - 080° 080° 5 kt METAR LFOA 150130Z AUTO 08005KT CAVOK 15/14 Q1012
03:00
V
15 °C 10 km+ - 080° 080° 4 kt METAR LFOA 150100Z AUTO 08004KT CAVOK 15/14 Q1012
02:30
V
16 °C 10 km+ - 080° 080° 3 kt METAR LFOA 150030Z AUTO 08003KT CAVOK 16/14 Q1012
02:00
V
16 °C 10 km+ - 070° 070° 3 kt METAR LFOA 150000Z AUTO 07003KT CAVOK 16/14 Q1013
01:30
V
16 °C 10 km+ - 080° 080° 4 kt METAR LFOA 142330Z AUTO 08004KT CAVOK 16/14 Q1013
01:00
V
17 °C 10 km+ - 080° 080° 3 kt METAR LFOA 142300Z AUTO 08003KT CAVOK 17/14 Q1013
00:30
V
17 °C 10 km+ - 090° 090° 4 kt METAR LFOA 142230Z AUTO 09004KT CAVOK 17/14 Q1013
00:00
V
17 °C 10 km+ - 070° 070° 3 kt METAR LFOA 142200Z AUTO 07003KT CAVOK 17/14 Q1013 NOSIG

2024年7月14日

时间 代码 天气 温度 能见度 天花板 METAR/SPECI
23:30
V
18 °C 10 km+ - 080° 080° 3 kt METAR LFOA 142130Z AUTO 08003KT CAVOK 18/14 Q1013 NOSIG
23:00
V
19 °C 10 km+ - 090° 090° 3 kt METAR LFOA 142100Z AUTO 09003KT CAVOK 19/14 Q1013 NOSIG
22:30
V
20 °C 10 km+ - 040° 040° 3 kt METAR LFOA 142030Z AUTO 04003KT CAVOK 20/14 Q1013 NOSIG
22:00
I
20 °C 4,4 km - 030° 030° 3 kt METAR LFOA 142000Z AUTO 03003KT 9999 4400 NSC 20/13 Q1013 NOSIG
21:30
V
21 °C 10 km+ - 350° 350° 3 kt METAR LFOA 141930Z AUTO 35003KT CAVOK 21/14 Q1013 NOSIG
21:00
V
22 °C 10 km+ - 330° 330° 2 kt METAR LFOA 141900Z AUTO 33002KT CAVOK 22/13 Q1013 NOSIG
20:30
V
23 °C 10 km+ - 360° 360° 0 kt METAR LFOA 141830Z AUTO 00000KT CAVOK 23/13 Q1013 NOSIG
20:00
V
23 °C 10 km+ - 360° 360° 0 kt METAR LFOA 141800Z AUTO 00000KT CAVOK 23/13 Q1013 NOSIG
19:30
V
23 °C 10 km+ - Var Var 2 kt METAR LFOA 141730Z AUTO VRB02KT CAVOK 23/14 Q1013 NOSIG
19:00
V
23 °C 10 km+ - 180° 180° 4 kt METAR LFOA 141700Z AUTO 18004KT 120V230 CAVOK 23/14 Q1013 NOSIG
18:30
V
22 °C 10 km+ - 170° 170° 4 kt METAR LFOA 141630Z AUTO 17004KT 140V200 CAVOK 22/14 Q1013 NOSIG
18:00
V
22 °C 10 km+ - 150° 150° 4 kt METAR LFOA 141600Z AUTO 15004KT 120V180 CAVOK 22/13 Q1013 NOSIG
17:30
V
22 °C 10 km+ - 180° 180° 7 kt METAR LFOA 141530Z AUTO 18007KT CAVOK 22/14 Q1013 NOSIG
17:00
V
23 °C 10 km+ - 150° 150° 8 kt METAR LFOA 141500Z AUTO 15008KT 110V170 CAVOK 23/14 Q1013 NOSIG
16:30
V
22 °C 10 km+ - 130° 130° 6 kt METAR LFOA 141430Z AUTO 13006KT CAVOK 22/13 Q1013 NOSIG
16:00
V
22 °C 10 km+ - 130° 130° 4 kt METAR LFOA 141400Z AUTO 13004KT 100V160 CAVOK 22/14 Q1013 NOSIG
15:30
V
22 °C 10 km+ - 160° 160° 1 kt METAR LFOA 141330Z AUTO 16001KT CAVOK 22/13 Q1014 NOSIG
15:00
V
22 °C 10 km+ - Var Var 2 kt METAR LFOA 141300Z AUTO VRB02KT CAVOK 22/14 Q1013 NOSIG
14:30
V
23 °C 10 km+ - Var Var 1 kt METAR LFOA 141230Z AUTO VRB01KT CAVOK 23/13 Q1014 NOSIG
14:00
V
22 °C 10 km+ - 170° 170° 4 kt METAR LFOA 141200Z AUTO 17004KT 120V220 CAVOK 22/13 Q1014 NOSIG
13:30
V
21 °C 10 km+ - 150° 150° 5 kt METAR LFOA 141130Z AUTO 15005KT CAVOK 21/13 Q1013 NOSIG
13:00
V
21 °C 10 km+ - 100° 100° 5 kt METAR LFOA 141100Z AUTO 10005KT 070V150 CAVOK 21/13 Q1013 NOSIG
12:30
V
22 °C 10 km+ - 100° 100° 8 kt METAR LFOA 141030Z AUTO 10008KT CAVOK 22/13 Q1013 NOSIG
12:00
V
21 °C 10 km+ - 100° 100° 8 kt METAR LFOA 141000Z AUTO 10008KT 070V130 CAVOK 21/12 Q1013 NOSIG
11:30
V
20 °C 10 km+ - 080° 080° 8 kt METAR LFOA 140930Z AUTO 08008KT CAVOK 20/12 Q1013 NOSIG
11:00
V
21 °C 10 km+ - 120° 120° 6 kt METAR LFOA 140900Z AUTO 12006KT 080V140 CAVOK 21/12 Q1013 NOSIG
10:30
V
21 °C 10 km+ - 120° 120° 7 kt METAR LFOA 140830Z AUTO 12007KT CAVOK 21/12 Q1013 NOSIG
10:00
V
20 °C 10 km+ - 120° 120° 7 kt METAR LFOA 140800Z AUTO 12007KT 080V150 CAVOK 20/12 Q1014 NOSIG
09:30
V
19 °C 10 km+ - 120° 120° 7 kt METAR LFOA 140730Z AUTO 12007KT CAVOK 19/12 Q1014 NOSIG
09:00
V
18 °C 10 km+ - 100° 100° 5 kt METAR LFOA 140700Z AUTO 10005KT CAVOK 18/13 Q1014 NOSIG
08:30
V
16 °C 10 km+ - 100° 100° 4 kt METAR LFOA 140630Z AUTO 10004KT CAVOK 16/13 Q1014 NOSIG
08:00
V
14 °C 10 km+ - 080° 080° 5 kt METAR LFOA 140600Z AUTO 08005KT CAVOK 14/12 Q1013 NOSIG
报告变更